Time;durP1;ratioP1;P1;durP2;ratioP2;P2;SDS_P1;SDS_P2;PMS_P1;PMS_P2;Temp;Humidity;BMP_temperature;BMP_pressure;BME280_temperature;BME280_humidity;BME280_pressure;Samples;Min_cycle;Max_cycle;Signal;HPM_P1;HPM_P2
2023/01/28 00:02:05;;;;;;;8.52;5.18;;;;;;;1.99;100.00;102791.56;5072299;28;20484;-51
2023/01/28 00:04:34;;;;;;;8.80;5.25;;;;;;;2.03;100.00;102801.97;5072139;28;20054;-52
2023/01/28 00:07:02;;;;;;;8.68;5.00;;;;;;;1.97;100.00;102807.13;5072160;28;20083;-52
2023/01/28 00:09:30;;;;;;;8.85;5.18;;;;;;;2.00;100.00;102809.75;5072262;28;20072;-52
2023/01/28 00:12:00;;;;;;;8.82;4.65;;;;;;;2.01;100.00;102808.84;5072205;28;20388;-52
2023/01/28 00:14:29;;;;;;;9.10;5.13;;;;;;;2.04;100.00;102813.19;5072074;28;20052;-48
2023/01/28 00:16:57;;;;;;;8.55;4.80;;;;;;;2.05;100.00;102807.16;5071935;28;20383;-51
2023/01/28 00:19:25;;;;;;;9.13;4.80;;;;;;;2.05;100.00;102804.56;5071966;28;20045;-51
2023/01/28 00:21:53;;;;;;;8.45;5.10;;;;;;;2.03;100.00;102804.56;5071914;28;20047;-48
2023/01/28 00:24:22;;;;;;;8.82;5.13;;;;;;;2.00;100.00;102807.16;5070857;28;20484;-53
2023/01/28 00:26:50;;;;;;;8.18;4.78;;;;;;;2.03;100.00;102801.06;5068643;28;20063;-50
2023/01/28 00:29:20;;;;;;;8.63;5.00;;;;;;;1.99;100.00;102799.34;5070506;28;20048;-50
2023/01/28 00:31:48;;;;;;;9.70;5.07;;;;;;;1.99;100.00;102797.63;5071740;28;20148;-50
2023/01/28 00:34:16;;;;;;;8.55;5.25;;;;;;;2.00;100.00;102799.38;5071018;28;20048;-52
2023/01/28 00:36:44;;;;;;;8.40;4.90;;;;;;;2.01;100.00;102797.63;5068138;28;20052;-52
2023/01/28 00:39:15;;;;;;;8.63;4.78;;;;;;;2.01;100.00;102803.66;5069556;28;20055;-50
2023/01/28 00:41:43;;;;;;;7.70;4.65;;;;;;;2.07;100.00;102801.94;5074391;28;20094;-48
2023/01/28 00:44:11;;;;;;;7.90;4.80;;;;;;;2.03;100.00;102814.06;5076057;28;20044;-63
2023/01/28 00:46:41;;;;;;;8.73;4.72;;;;;;;1.99;100.00;102813.19;5075728;28;20154;-63
2023/01/28 00:49:10;;;;;;;7.80;4.70;;;;;;;2.02;100.00;102814.94;5076025;28;20106;-63
2023/01/28 00:51:38;;;;;;;8.50;5.03;;;;;;;1.99;100.00;102813.19;5075865;28;20123;-63
2023/01/28 00:54:06;;;;;;;8.88;5.45;;;;;;;2.03;100.00;102819.25;5075691;28;20149;-62
2023/01/28 00:56:35;;;;;;;10.32;5.28;;;;;;;2.00;100.00;102821.84;5075569;28;20052;-63
2023/01/28 00:59:04;;;;;;;9.13;5.32;;;;;;;2.08;100.00;102821.88;5072026;28;20120;-63
2023/01/28 01:01:32;;;;;;;8.48;4.78;;;;;;;2.07;100.00;102823.56;5071441;28;20534;-63
2023/01/28 01:04:02;;;;;;;8.65;5.00;;;;;;;2.03;100.00;102816.66;5075534;28;20399;-63
2023/01/28 01:06:32;;;;;;;8.10;4.63;;;;;;;2.01;100.00;102821.84;5075378;28;20446;-63
2023/01/28 01:09:01;;;;;;;9.07;5.10;;;;;;;2.00;100.00;102819.25;5075404;28;20105;-63
2023/01/28 01:11:30;;;;;;;9.18;5.18;;;;;;;2.01;100.00;102823.56;5075243;28;20083;-62
2023/01/28 01:13:59;;;;;;;9.93;5.05;;;;;;;1.95;100.00;102819.25;5075361;28;20079;-63
2023/01/28 01:16:32;;;;;;;8.50;5.20;;;;;;;1.97;100.00;102817.50;5075403;28;20075;-62
2023/01/28 01:19:02;;;;;;;8.13;5.05;;;;;;;1.92;100.00;102820.94;5073593;28;20052;-53
2023/01/28 01:21:30;;;;;;;8.95;5.20;;;;;;;1.94;100.00;102817.50;5070902;28;20048;-53
2023/01/28 01:23:59;;;;;;;8.70;4.90;;;;;;;1.94;100.00;102822.69;5074568;28;20049;-53
2023/01/28 01:26:27;;;;;;;8.35;4.68;;;;;;;1.88;100.00;102814.88;5075151;28;20044;-52
2023/01/28 01:28:55;;;;;;;8.73;4.97;;;;;;;1.89;100.00;102823.56;5074683;28;20506;-53
2023/01/28 01:31:23;;;;;;;8.02;4.90;;;;;;;1.89;100.00;102821.81;5070003;28;20575;-52
2023/01/28 01:33:52;;;;;;;9.20;5.22;;;;;;;1.89;100.00;102828.75;5073064;28;20494;-49
2023/01/28 01:36:22;;;;;;;9.23;5.50;;;;;;;1.85;100.00;102820.94;5074728;28;20044;-51
2023/01/28 01:38:53;;;;;;;9.10;5.47;;;;;;;1.86;100.00;102822.66;5074812;28;20060;-51
2023/01/28 01:41:26;;;;;;;9.00;5.57;;;;;;;1.81;100.00;102818.31;5074898;28;20067;-50
2023/01/28 01:43:56;;;;;;;9.38;5.72;;;;;;;1.83;100.00;102814.88;5074910;28;20040;-53
2023/01/28 01:46:33;;;;;;;8.55;5.03;;;;;;;1.81;100.00;102813.13;5074724;28;20045;-50
2023/01/28 01:49:11;;;;;;;8.95;5.15;;;;;;;1.83;100.00;102812.28;5074677;28;20051;-50
2023/01/28 01:51:41;;;;;;;10.23;6.03;;;;;;;1.89;100.00;102813.16;5074327;28;20055;-51
2023/01/28 01:54:09;;;;;;;8.43;4.95;;;;;;;1.88;100.00;102816.63;5073508;28;20109;-48
2023/01/28 01:56:42;;;;;;;9.00;5.25;;;;;;;1.86;100.00;102814.88;5070999;28;20098;-49
2023/01/28 01:59:14;;;;;;;9.65;5.60;;;;;;;1.85;100.00;102815.75;5073175;28;20044;-50
2023/01/28 02:01:44;;;;;;;9.93;5.32;;;;;;;1.86;100.00;102827.84;5074309;28;20044;-52
2023/01/28 02:04:18;;;;;;;8.57;4.97;;;;;;;1.80;100.00;102830.44;5074490;28;20098;-51
2023/01/28 02:06:49;;;;;;;8.55;5.07;;;;;;;1.81;100.00;102829.59;5074288;28;20102;-53
2023/01/28 02:09:24;;;;;;;8.30;4.95;;;;;;;1.82;100.00;102820.91;5074412;28;20530;-49
2023/01/28 02:11:56;;;;;;;8.95;5.60;;;;;;;1.80;100.00;102826.97;5074304;28;20053;-51
2023/01/28 02:14:28;;;;;;;9.63;5.00;;;;;;;1.78;100.00;102826.97;5074235;28;20064;-51
2023/01/28 02:17:00;;;;;;;9.57;5.18;;;;;;;1.75;100.00;102820.91;5074107;28;20473;-52
2023/01/28 02:19:48;;;;;;;9.07;5.45;;;;;;;1.72;100.00;102820.88;5071529;28;20052;-53
2023/01/28 02:22:36;;;;;;;8.75;5.20;;;;;;;1.71;100.00;102820.03;5069802;28;20049;-50
2023/01/28 02:25:58;;;;;;;9.55;5.18;;;;;;;1.72;100.00;102826.97;5073684;28;20556;-50
2023/01/28 02:28:34;;;;;;;9.43;5.43;;;;;;;1.76;100.00;102830.41;5073916;28;20113;-53
2023/01/28 02:31:11;;;;;;;9.07;5.88;;;;;;;1.76;100.00;102830.41;5073351;28;20052;-53
2023/01/28 02:33:44;;;;;;;8.98;5.45;;;;;;;1.75;100.00;102833.88;5070054;28;20047;-54
2023/01/28 02:36:23;;;;;;;9.70;5.68;;;;;;;1.74;100.00;102835.59;5071948;28;20048;-53
2023/01/28 02:38:55;;;;;;;9.80;5.53;;;;;;;1.72;100.00;102834.75;5071086;28;20048;-53
2023/01/28 02:41:41;;;;;;;9.95;5.43;;;;;;;1.74;100.00;102834.75;5068598;28;20045;-51
2023/01/28 02:44:11;;;;;;;9.05;5.00;;;;;;;1.78;100.00;102831.31;5072146;28;20048;-53
2023/01/28 02:49:29;;;;;;;9.77;5.55;;;;;;;1.71;100.00;102827.81;5071922;28;20044;-53
2023/01/28 02:53:39;;;;;;;10.43;5.93;;;;;;;1.64;100.00;102834.69;5073583;28;20052;-52
2023/01/28 02:55:12;;;;;;;12.05;6.35;;;;;;;1.60;100.00;102827.78;5071109;28;20049;-53
2023/01/28 02:57:53;;;;;;;11.43;7.03;;;;;;;1.58;100.00;102828.63;5069860;28;20503;-52
2023/01/28 03:00:27;;;;;;;11.98;6.38;;;;;;;1.62;100.00;102832.97;5071845;28;20049;-50
2023/01/28 03:03:05;;;;;;;11.15;6.45;;;;;;;1.58;100.00;102829.50;5067590;28;20064;-50
2023/01/28 03:05:38;;;;;;;12.05;6.28;;;;;;;1.58;100.00;102839.00;5071047;28;20098;-49
2023/01/28 03:38:55;;;;;;;13.52;7.25;;;;;;;1.46;100.00;102826.81;5072394;28;20059;-53
2023/01/28 03:41:26;;;;;;;11.77;6.20;;;;;;;1.53;100.00;102828.63;5072325;28;20074;-51
2023/01/28 03:43:54;;;;;;;10.75;6.43;;;;;;;1.47;100.00;102833.75;5071826;28;20044;-53
2023/01/28 03:46:23;;;;;;;10.77;6.20;;;;;;;1.41;100.00;102831.16;5070760;28;20774;-53
2023/01/28 03:48:52;;;;;;;10.00;5.72;;;;;;;1.34;100.00;102840.63;5068886;28;20083;-53
2023/01/28 03:51:21;;;;;;;9.35;5.20;;;;;;;1.36;100.00;102838.88;5069998;28;20455;-53
2023/01/28 03:53:49;;;;;;;9.95;5.80;;;;;;;1.43;100.00;102851.06;5072779;28;20480;-50
2023/01/28 03:56:18;;;;;;;10.00;5.60;;;;;;;1.38;100.00;102850.16;5072353;28;20098;-52
2023/01/28 03:58:51;;;;;;;9.85;5.75;;;;;;;1.35;100.00;102863.09;5071843;28;20150;-53
2023/01/28 04:01:20;;;;;;;9.85;5.88;;;;;;;1.32;100.00;102858.78;5066067;28;20587;-52
2023/01/28 04:03:48;;;;;;;9.25;5.43;;;;;;;1.33;100.00;102849.25;5068889;28;20040;-52
2023/01/28 04:06:18;;;;;;;9.65;5.57;;;;;;;1.33;100.00;102852.69;5071966;28;20053;-53
2023/01/28 04:08:51;;;;;;;10.95;5.65;;;;;;;1.34;100.00;102851.84;5071922;28;20049;-53
2023/01/28 04:11:20;;;;;;;9.88;5.97;;;;;;;1.31;100.00;102856.13;5070887;28;20143;-53
2023/01/28 04:13:49;;;;;;;10.63;5.70;;;;;;;1.25;100.00;102850.94;5068398;28;20375;-50
2023/01/28 04:16:19;;;;;;;10.02;5.95;;;;;;;1.25;100.00;102853.53;5068556;28;20542;-50
2023/01/28 04:18:47;;;;;;;9.52;5.13;;;;;;;1.24;100.00;102850.06;5071754;28;20454;-53
2023/01/28 04:21:15;;;;;;;10.68;5.70;;;;;;;1.25;100.00;102861.31;5068093;28;20336;-53
2023/01/28 04:23:45;;;;;;;10.55;6.18;;;;;;;1.26;100.00;102855.28;5068840;28;20048;-52
2023/01/28 04:26:13;;;;;;;11.00;6.05;;;;;;;1.26;100.00;102848.34;5072071;28;20053;-50
2023/01/28 04:28:41;;;;;;;10.25;6.18;;;;;;;1.19;100.00;102849.19;5072078;28;20424;-51
2023/01/28 04:31:09;;;;;;;10.45;6.07;;;;;;;1.25;100.00;102846.59;5072021;28;20534;-50
2023/01/28 04:33:37;;;;;;;10.68;6.70;;;;;;;1.20;100.00;102847.44;5071947;28;20044;-50
2023/01/28 04:36:06;;;;;;;10.30;5.70;;;;;;;1.24;100.00;102857.84;5067495;28;20068;-51
2023/01/28 04:38:34;;;;;;;10.02;5.97;;;;;;;1.24;100.00;102863.03;5069291;28;20093;-53
2023/01/28 04:41:03;;;;;;;12.50;6.88;;;;;;;1.17;100.00;102869.91;5071940;28;20056;-50
2023/01/28 04:43:31;;;;;;;12.02;7.07;;;;;;;1.19;100.00;102867.31;5071877;28;20121;-50
2023/01/28 04:46:00;;;;;;;11.23;5.95;;;;;;;1.14;100.00;102861.22;5069138;28;20051;-52
2023/01/28 04:48:29;;;;;;;11.60;6.60;;;;;;;1.15;100.00;102871.59;5066888;28;20044;-50
2023/01/28 04:50:57;;;;;;;11.02;6.65;;;;;;;1.06;100.00;102868.94;5071594;28;20055;-49
2023/01/28 04:53:25;;;;;;;12.30;7.47;;;;;;;1.03;100.00;102868.94;5072076;28;20094;-51
2023/01/28 04:55:53;;;;;;;12.23;6.97;;;;;;;1.03;100.00;102861.16;5071793;28;20053;-50
2023/01/28 04:58:23;;;;;;;11.80;6.90;;;;;;;1.08;100.00;102868.94;5071766;28;20102;-50
2023/01/28 05:00:56;;;;;;;11.02;6.90;;;;;;;1.04;100.00;102878.44;5071928;28;20052;-53
2023/01/28 05:03:25;;;;;;;11.95;7.00;;;;;;;1.05;100.00;102880.19;5067054;28;20102;-55
2023/01/28 05:05:53;;;;;;;11.27;6.35;;;;;;;1.05;100.00;102880.19;5067909;28;20045;-53
2023/01/28 05:08:21;;;;;;;11.40;7.05;;;;;;;1.04;100.00;102878.44;5071487;28;20078;-53
2023/01/28 05:10:50;;;;;;;11.77;6.78;;;;;;;1.02;100.00;102877.56;5071728;28;20048;-52
2023/01/28 05:13:18;;;;;;;12.85;6.88;;;;;;;1.02;100.00;102869.78;5068425;28;20078;-52
2023/01/28 05:15:52;;;;;;;11.73;6.38;;;;;;;1.07;100.00;102873.28;5067904;28;20395;-50
2023/01/28 05:18:21;;;;;;;12.98;7.30;;;;;;;1.07;100.00;102873.28;5071994;28;20430;-51
2023/01/28 05:20:49;;;;;;;13.63;7.72;;;;;;;1.01;100.00;102873.25;5071498;28;20048;-50
2023/01/28 05:23:17;;;;;;;11.95;7.07;;;;;;;1.02;100.00;102869.78;5069177;28;20465;-51
2023/01/28 05:25:45;;;;;;;13.27;7.40;;;;;;;1.00;100.00;102874.09;5066493;28;20059;-52
2023/01/28 05:28:14;;;;;;;13.10;7.38;;;;;;;0.91;100.00;102869.69;5074241;28;20419;-53
2023/01/28 05:30:42;;;;;;;13.82;7.53;;;;;;;0.95;100.00;102862.81;5074913;28;20064;-54
2023/01/28 05:33:12;;;;;;;13.02;7.40;;;;;;;1.00;100.00;102863.75;5073062;28;20086;-63
2023/01/28 05:35:40;;;;;;;13.40;7.30;;;;;;;0.87;100.00;102861.91;5071161;28;20494;-63
2023/01/28 05:38:08;;;;;;;13.80;7.72;;;;;;;0.87;100.00;102862.75;5073172;28;20499;-63
2023/01/28 05:40:36;;;;;;;12.82;7.22;;;;;;;0.83;100.00;102864.47;5074286;28;20044;-63
2023/01/28 05:43:04;;;;;;;13.20;7.40;;;;;;;0.96;100.00;102865.44;5071319;28;20044;-63
2023/01/28 05:45:35;;;;;;;14.13;7.90;;;;;;;0.98;100.00;102868.03;5073027;28;20048;-63
2023/01/28 05:48:03;;;;;;;13.55;7.65;;;;;;;0.87;100.00;102869.69;5074813;28;20048;-63
2023/01/28 05:50:33;;;;;;;12.98;7.30;;;;;;;0.76;100.00;102869.59;5074541;28;20356;-63
2023/01/28 05:53:01;;;;;;;13.98;7.03;;;;;;;0.82;100.00;102869.66;5073369;28;20109;-63
2023/01/28 05:55:29;;;;;;;14.05;7.38;;;;;;;0.84;100.00;102871.38;5073591;28;20101;-62
2023/01/28 05:57:57;;;;;;;13.73;7.15;;;;;;;0.79;100.00;102867.91;5071271;28;20144;-62
2023/01/28 06:00:25;;;;;;;12.68;6.72;;;;;;;0.83;100.00;102874.84;5072223;28;20115;-61
2023/01/28 06:02:54;;;;;;;13.95;7.38;;;;;;;0.87;100.00;102867.09;5074583;28;20430;-62
2023/01/28 06:05:22;;;;;;;14.40;8.38;;;;;;;0.89;100.00;102879.19;5074493;28;20037;-63
2023/01/28 06:07:52;;;;;;;13.60;7.93;;;;;;;0.90;100.00;102867.09;5070142;28;20048;-61
2023/01/28 06:10:20;;;;;;;14.98;7.68;;;;;;;0.85;100.00;102872.25;5071145;28;20547;-61
2023/01/28 06:12:48;;;;;;;13.52;6.97;;;;;;;0.86;100.00;102880.88;5074123;28;20531;-62
2023/01/28 06:15:16;;;;;;;13.55;7.47;;;;;;;0.82;100.00;102867.91;5074238;28;20036;-61
2023/01/28 06:17:45;;;;;;;15.90;6.90;;;;;;;0.83;100.00;102877.44;5074185;28;20099;-62
2023/01/28 06:20:13;;;;;;;14.10;7.82;;;;;;;0.77;100.00;102874.78;5074071;28;20056;-63
2023/01/28 06:22:42;;;;;;;12.65;7.47;;;;;;;0.78;100.00;102870.47;5073884;28;20511;-62
2023/01/28 06:25:12;;;;;;;14.25;7.80;;;;;;;0.83;100.00;102880.03;5069970;28;20052;-61
2023/01/28 06:27:40;;;;;;;13.95;7.60;;;;;;;0.84;100.00;102878.28;5072262;28;20048;-61
2023/01/28 06:30:10;;;;;;;13.73;7.38;;;;;;;0.75;100.00;102879.09;5073877;28;20094;-61
2023/01/28 06:32:39;;;;;;;13.93;7.55;;;;;;;0.77;100.00;102873.94;5069448;28;20057;-62
2023/01/28 06:35:08;;;;;;;13.63;7.88;;;;;;;0.72;100.00;102870.41;5070218;28;20257;-61
2023/01/28 06:37:37;;;;;;;14.88;7.38;;;;;;;0.66;100.00;102864.31;5073939;28;20078;-61
2023/01/28 06:40:07;;;;;;;14.07;7.88;;;;;;;0.62;100.00;102872.94;5073540;28;20041;-61
2023/01/28 06:42:36;;;;;;;15.02;8.00;;;;;;;0.65;100.00;102872.94;5073745;28;20053;-63
2023/01/28 06:45:05;;;;;;;15.38;8.20;;;;;;;0.61;100.00;102875.50;5073555;28;20044;-63
2023/01/28 06:47:33;;;;;;;13.77;8.02;;;;;;;0.65;100.00;102870.34;5073565;28;20055;-62
2023/01/28 06:50:02;;;;;;;14.65;7.93;;;;;;;0.65;100.00;102879.84;5073508;28;20403;-62
2023/01/28 06:52:30;;;;;;;13.23;7.75;;;;;;;0.70;100.00;102891.13;5072124;28;20051;-61
2023/01/28 06:54:58;;;;;;;15.07;7.82;;;;;;;0.57;100.00;102894.47;5070037;28;20044;-63
2023/01/28 06:57:29;;;;;;;13.55;7.97;;;;;;;0.59;100.00;102890.19;5072234;28;20051;-63
2023/01/28 06:59:58;;;;;;;14.10;7.47;;;;;;;0.54;100.00;102884.09;5073321;28;20055;-63
2023/01/28 07:02:26;;;;;;;13.85;7.25;;;;;;;0.55;100.00;102888.41;5073417;28;20044;-63
2023/01/28 07:04:54;;;;;;;13.63;7.43;;;;;;;0.55;100.00;102886.69;5073400;28;20178;-63
2023/01/28 07:07:22;;;;;;;15.57;8.40;;;;;;;0.63;100.00;102891.94;5073447;28;20081;-63
2023/01/28 07:09:50;;;;;;;13.25;7.75;;;;;;;0.67;100.00;102904.91;5071817;28;20485;-63
2023/01/28 07:12:19;;;;;;;13.63;7.45;;;;;;;0.61;100.00;102909.16;5072726;28;20055;-63
2023/01/28 07:14:47;;;;;;;12.63;7.63;;;;;;;0.54;100.00;102912.56;5069774;28;20119;-63
2023/01/28 07:17:16;;;;;;;15.32;8.18;;;;;;;0.53;100.00;102919.44;5070147;28;20068;-63
2023/01/28 07:19:44;;;;;;;13.75;7.88;;;;;;;0.63;100.00;102917.84;5072957;28;20127;-63
2023/01/28 07:22:13;;;;;;;12.68;7.88;;;;;;;0.56;100.00;102922.09;5069737;28;20040;-63
2023/01/28 07:24:41;;;;;;;13.63;8.05;;;;;;;0.52;100.00;102924.63;5069401;28;20074;-63
2023/01/28 07:27:09;;;;;;;14.73;8.18;;;;;;;0.48;100.00;102924.59;5072928;28;20484;-63
2023/01/28 07:29:38;;;;;;;14.80;8.43;;;;;;;0.43;100.00;102931.44;5072221;28;20041;-63
2023/01/28 07:32:06;;;;;;;16.02;8.13;;;;;;;0.45;100.00;102934.94;5072315;28;20083;-63
2023/01/28 07:34:38;;;;;;;14.20;8.20;;;;;;;0.43;100.00;102940.94;5072552;28;20037;-63
2023/01/28 07:37:06;;;;;;;15.02;9.10;;;;;;;0.41;100.00;102943.50;5068545;28;20044;-62
2023/01/28 07:39:34;;;;;;;13.25;7.55;;;;;;;0.44;100.00;102946.13;5069545;28;20522;-63
2023/01/28 07:42:03;;;;;;;13.32;8.40;;;;;;;0.46;100.00;102936.66;5072673;28;20552;-62
2023/01/28 07:44:31;;;;;;;14.30;8.40;;;;;;;0.45;100.00;102945.28;5072543;28;20064;-63
2023/01/28 07:46:59;;;;;;;13.18;7.82;;;;;;;0.54;100.00;102946.22;5072718;28;20043;-63
2023/01/28 07:49:27;;;;;;;14.23;8.40;;;;;;;0.52;100.00;102930.69;5072312;28;20044;-63
2023/01/28 07:51:57;;;;;;;13.20;8.02;;;;;;;0.55;100.00;102937.63;5072531;28;20040;-62
2023/01/28 07:54:25;;;;;;;14.93;8.20;;;;;;;0.55;100.00;102945.38;5071650;28;20450;-63
2023/01/28 07:56:53;;;;;;;13.60;7.50;;;;;;;0.55;100.00;102947.97;5069011;28;20041;-62
2023/01/28 07:59:22;;;;;;;13.80;8.07;;;;;;;0.57;100.00;102954.88;5069912;28;20106;-62
2023/01/28 08:01:51;;;;;;;14.90;8.65;;;;;;;0.57;100.00;102956.63;5072436;28;20515;-63
2023/01/28 08:04:22;;;;;;;14.27;8.52;;;;;;;0.57;100.00;102961.78;5072393;28;20048;-62
2023/01/28 08:06:51;;;;;;;14.30;8.10;;;;;;;0.59;100.00;102957.50;5071889;28;20041;-63
2023/01/28 08:09:20;;;;;;;15.02;8.48;;;;;;;0.69;100.00;102953.28;5068642;28;20139;-63
2023/01/28 08:11:48;;;;;;;14.25;8.05;;;;;;;0.70;100.00;102966.25;5070423;28;20049;-63
2023/01/28 08:14:17;;;;;;;16.30;8.73;;;;;;;0.71;100.00;102957.63;5072143;28;20109;-63
2023/01/28 08:16:45;;;;;;;14.45;8.27;;;;;;;0.74;100.00;102973.19;5072247;28;20032;-63
2023/01/28 08:19:13;;;;;;;14.60;9.00;;;;;;;0.68;100.00;102973.13;5070846;28;20114;-63
2023/01/28 08:21:41;;;;;;;13.98;8.10;;;;;;;0.70;100.00;102974.03;5071966;28;20499;-62
2023/01/28 08:24:09;;;;;;;13.32;8.10;;;;;;;0.65;100.00;102968.78;5072083;28;20043;-62
2023/01/28 08:26:39;;;;;;;14.77;9.57;;;;;;;0.65;100.00;102967.91;5071977;28;20045;-63
2023/01/28 08:29:07;;;;;;;14.00;8.65;;;;;;;0.70;100.00;102973.16;5068013;28;20597;-62
2023/01/28 08:31:35;;;;;;;14.65;8.60;;;;;;;0.74;100.00;102973.19;5067718;28;20061;-62
2023/01/28 08:34:03;;;;;;;14.75;8.77;;;;;;;0.73;100.00;102974.03;5071816;28;20052;-63
2023/01/28 08:36:31;;;;;;;14.32;8.57;;;;;;;0.76;100.00;102975.81;5070694;28;20107;-63
2023/01/28 08:39:03;;;;;;;14.05;8.20;;;;;;;0.77;100.00;102978.41;5072286;28;20044;-63
2023/01/28 08:41:31;;;;;;;14.20;8.73;;;;;;;0.83;100.00;102981.06;5068311;28;20053;-63
2023/01/28 08:44:00;;;;;;;14.95;8.70;;;;;;;0.84;100.00;102994.88;5068384;28;20064;-63
2023/01/28 08:46:29;;;;;;;14.55;8.73;;;;;;;0.86;100.00;102988.00;5071669;28;20052;-63
2023/01/28 08:48:57;;;;;;;14.77;8.68;;;;;;;0.89;100.00;102989.75;5070559;28;20045;-62
2023/01/28 08:51:25;;;;;;;14.50;8.63;;;;;;;0.92;100.00;102988.03;5071305;28;20036;-62
2023/01/28 08:53:55;;;;;;;14.20;8.65;;;;;;;0.90;100.00;102978.50;5071509;28;20529;-62
2023/01/28 08:56:23;;;;;;;16.58;9.43;;;;;;;0.98;100.00;102984.63;5071821;28;20375;-62
2023/01/28 08:58:52;;;;;;;13.38;8.38;;;;;;;0.95;100.00;102988.06;5071493;28;20106;-62
2023/01/28 09:01:21;;;;;;;14.80;8.82;;;;;;;0.95;100.00;103002.75;5067129;28;20036;-63
2023/01/28 09:03:49;;;;;;;13.20;8.25;;;;;;;0.94;100.00;103001.91;5073111;28;20098;-62
2023/01/28 09:06:17;;;;;;;12.55;8.07;;;;;;;0.95;100.00;103002.75;5075372;28;20131;-62
2023/01/28 09:08:45;;;;;;;13.05;8.05;;;;;;;0.91;100.00;102995.81;5075469;28;20106;-63
2023/01/28 09:11:13;;;;;;;13.13;8.25;;;;;;;0.83;100.00;103001.78;5071571;28;20040;-62
2023/01/28 09:13:41;;;;;;;14.48;8.52;;;;;;;0.84;100.00;102997.47;5072223;28;20591;-63
2023/01/28 09:16:10;;;;;;;14.82;8.70;;;;;;;0.88;100.00;102991.47;5075339;28;20040;-62
2023/01/28 09:18:40;;;;;;;13.15;8.35;;;;;;;0.89;100.00;102994.94;5071670;28;20044;-62
2023/01/28 09:21:08;;;;;;;13.23;8.63;;;;;;;0.87;100.00;103010.44;5070639;28;20059;-62
2023/01/28 09:23:36;;;;;;;13.18;8.38;;;;;;;0.92;100.00;103018.28;5073237;28;20044;-62
2023/01/28 09:26:05;;;;;;;13.43;8.30;;;;;;;0.92;100.00;103019.13;5075058;28;20098;-62
2023/01/28 09:28:33;;;;;;;13.07;7.90;;;;;;;0.95;100.00;103031.25;5075436;28;20054;-62
2023/01/28 09:31:03;;;;;;;12.63;8.00;;;;;;;0.94;100.00;103025.22;5074868;28;20044;-62
2023/01/28 09:33:31;;;;;;;11.70;7.15;;;;;;;0.98;100.00;103031.28;5074790;28;20051;-63
2023/01/28 09:36:01;;;;;;;11.75;7.50;;;;;;;0.94;100.00;103035.59;5075084;28;20080;-63
2023/01/28 09:38:30;;;;;;;12.63;7.68;;;;;;;0.93;100.00;103025.22;5075158;28;20048;-62
2023/01/28 09:41:00;;;;;;;12.02;7.45;;;;;;;0.96;100.00;103027.81;5074884;28;20132;-62
2023/01/28 09:43:50;;;;;;;14.68;7.65;;;;;;;0.99;100.00;103038.22;5074930;28;20115;-62
2023/01/28 09:46:18;;;;;;;11.82;7.40;;;;;;;0.93;100.00;103040.75;5071057;28;20539;-63
2023/01/28 09:48:49;;;;;;;12.02;7.80;;;;;;;0.97;100.00;103039.94;5069606;28;20059;-62
2023/01/28 09:51:31;;;;;;;12.95;7.35;;;;;;;0.89;100.00;103033.81;5073415;28;20060;-63
2023/01/28 09:54:04;;;;;;;11.95;7.53;;;;;;;0.94;100.00;103043.38;5074754;28;20123;-63
2023/01/28 09:56:36;;;;;;;11.60;7.50;;;;;;;0.97;100.00;103052.88;5075086;28;20041;-63
2023/01/28 09:59:18;;;;;;;11.73;7.43;;;;;;;1.01;100.00;103049.47;5074367;28;20048;-62
2023/01/28 10:01:53;;;;;;;11.13;6.68;;;;;;;1.21;100.00;103061.75;5070523;28;20046;-63
2023/01/28 10:04:31;;;;;;;11.40;7.45;;;;;;;1.20;100.00;103070.38;5071743;28;20383;-63
2023/01/28 10:07:26;;;;;;;10.50;6.70;;;;;;;1.13;100.00;103064.25;5074489;28;20052;-63
2023/01/28 10:10:00;;;;;;;11.52;7.30;;;;;;;1.11;100.00;103050.44;5073982;28;20056;-63
2023/01/28 10:12:50;;;;;;;10.68;7.18;;;;;;;1.15;100.00;103049.59;5071955;28;20122;-62
2023/01/28 10:15:33;;;;;;;11.30;6.45;;;;;;;1.18;100.00;103053.06;5069749;28;20064;-62
2023/01/28 10:18:04;;;;;;;12.45;7.75;;;;;;;1.24;100.00;103049.69;5070348;28;20593;-62
2023/01/28 10:20:49;;;;;;;11.82;7.78;;;;;;;1.32;100.00;103044.56;5074211;28;20044;-62
2023/01/28 10:23:26;;;;;;;11.45;7.15;;;;;;;1.37;100.00;103037.69;5072879;28;20040;-62
2023/01/28 10:25:56;;;;;;;11.65;6.97;;;;;;;1.46;100.00;103030.00;5074211;28;20044;-62
2023/01/28 10:28:27;;;;;;;11.23;7.25;;;;;;;1.58;100.00;103031.84;5074002;28;20044;-62
2023/01/28 10:30:56;;;;;;;10.45;6.68;;;;;;;1.63;100.00;103030.13;5074096;28;20503;-62
2023/01/28 10:33:31;;;;;;;11.70;7.35;;;;;;;1.68;100.00;103038.81;5073861;28;20056;-63
2023/01/28 10:35:59;;;;;;;10.10;6.50;;;;;;;1.74;100.00;103043.16;5071092;28;20037;-62
2023/01/28 10:38:31;;;;;;;12.38;7.30;;;;;;;1.82;100.00;103044.09;5068719;28;20666;-63
2023/01/28 10:41:02;;;;;;;11.00;7.10;;;;;;;1.79;100.00;103028.50;5073675;28;20057;-62
2023/01/28 10:43:32;;;;;;;11.88;6.80;;;;;;;1.89;100.00;103037.22;5073885;28;20045;-63
2023/01/28 10:46:06;;;;;;;10.20;7.15;;;;;;;1.91;100.00;103034.63;5073796;28;20041;-62
2023/01/28 10:48:38;;;;;;;10.23;6.90;;;;;;;1.94;100.00;103025.13;5070404;28;20059;-63
2023/01/28 10:51:07;;;;;;;11.30;6.82;;;;;;;1.97;100.00;103017.34;5068362;28;20485;-62
2023/01/28 10:53:39;;;;;;;11.25;7.05;;;;;;;2.03;100.00;103024.31;5073248;28;20068;-63
2023/01/28 10:56:09;;;;;;;10.63;7.03;;;;;;;2.10;100.00;103020.00;5073549;28;20525;-62
2023/01/28 10:58:50;;;;;;;12.45;8.20;;;;;;;2.13;100.00;103025.25;5073127;28;20055;-63
2023/01/28 11:01:21;;;;;;;12.80;7.82;;;;;;;2.10;100.00;103010.53;5072834;28;20495;-63
2023/01/28 11:03:55;;;;;;;11.57;7.93;;;;;;;2.19;100.00;103002.75;5073063;28;20151;-63
2023/01/28 11:06:25;;;;;;;12.98;8.05;;;;;;;2.27;100.00;102991.56;5072082;28;20377;-63
2023/01/28 11:08:55;;;;;;;13.98;8.82;;;;;;;2.43;100.00;102985.53;5073118;28;21163;-63
2023/01/28 11:11:25;;;;;;;13.77;9.20;;;;;;;2.59;100.00;102994.25;5070526;28;20440;-63
2023/01/28 11:13:57;;;;;;;13.07;8.35;;;;;;;2.61;100.00;102996.84;5069241;28;20139;-63
2023/01/28 11:16:26;;;;;;;12.93;8.23;;;;;;;2.75;100.00;102983.88;5072358;28;20134;-62
2023/01/28 11:19:00;;;;;;;13.25;8.63;;;;;;;2.76;100.00;102976.09;5072988;28;20499;-63
2023/01/28 11:21:31;;;;;;;12.80;7.55;;;;;;;2.67;100.00;102983.88;5073024;28;20499;-63
2023/01/28 11:24:06;;;;;;;13.43;8.30;;;;;;;2.81;100.00;102973.50;5070506;28;20139;-63
2023/01/28 11:26:37;;;;;;;12.70;8.02;;;;;;;2.73;100.00;102968.31;5069571;28;20075;-63
2023/01/28 11:29:06;;;;;;;12.13;8.00;;;;;;;2.75;100.00;102953.56;5072691;28;20673;-63
2023/01/28 11:31:41;;;;;;;11.75;7.45;;;;;;;2.80;100.00;102946.66;5071446;28;20457;-63
2023/01/28 11:34:16;;;;;;;12.48;7.95;;;;;;;2.75;100.00;102939.72;5072671;28;20569;-63
2023/01/28 11:36:51;;;;;;;12.98;7.70;;;;;;;2.65;100.00;102915.44;5072849;28;20550;-63
2023/01/28 11:39:24;;;;;;;13.40;7.72;;;;;;;2.61;100.00;102903.31;5071435;28;20122;-63
2023/01/28 11:41:53;;;;;;;14.30;8.50;;;;;;;2.56;100.00;102895.50;5072554;28;20365;-63
2023/01/28 11:44:24;;;;;;;11.95;7.80;;;;;;;2.65;100.00;102895.53;5072593;28;20372;-63
2023/01/28 11:47:01;;;;;;;12.23;7.63;;;;;;;2.73;100.00;102905.94;5072450;28;20127;-63
2023/01/28 11:49:42;;;;;;;11.25;7.30;;;;;;;2.67;100.00;102900.72;5072505;28;20466;-63
2023/01/28 11:52:19;;;;;;;12.48;7.45;;;;;;;2.69;100.00;102899.00;5072684;28;20079;-63
2023/01/28 11:54:59;;;;;;;11.82;6.97;;;;;;;2.70;100.00;102892.94;5072326;28;20056;-63
2023/01/28 11:57:35;;;;;;;11.20;6.82;;;;;;;2.71;100.00;102902.44;5072500;28;20056;-63
2023/01/28 12:00:28;;;;;;;11.70;6.65;;;;;;;2.83;100.00;102897.25;5069018;28;20101;-63
2023/01/28 12:03:14;;;;;;;11.52;7.15;;;;;;;2.82;100.00;102898.16;5069213;28;20114;-63
2023/01/28 12:05:51;;;;;;;10.75;6.50;;;;;;;2.92;100.00;102904.19;5072199;28;20059;-63
2023/01/28 12:08:23;;;;;;;11.50;6.85;;;;;;;2.90;100.00;102908.53;5072345;28;20099;-63
2023/01/28 12:12:10;;;;;;;10.73;7.03;;;;;;;2.72;100.00;102916.34;5071939;28;20044;-64